CEZ4 weather

Fort Vermilion Airport
Fort Vermilion, Alberta, Canada

Public forecast

Using degrees Celsius for public forecast. Weather courtesy of forecast.io.

METAR (pilot weather report)

Closest report is High Level Airport, 40.2 nm (74.5 km) WNW. Retrieved 2019/08/21 14:00 UTC (35 minutes ago):

CYOJ 211400Z 13012G21KT 15SM FEW140 BKN260 15/10 A2969 RMK AC2CI3 SLP060 DENSITY ALT 1700FT

TAF (pilot weather forecast)

Closest forecast is High Level Airport, 40.2 nm (74.5 km) WNW. Retrieved 2019/08/21 13:42 UTC (53 minutes ago):

TAF CYOJ 211238Z 2113/2201 12012G22KT P6SM SCT220 FM211800 14015G25KT P6SM FEW140 SCT220 FM212200 18012G22KT P6SM SCT050 BKN100 TEMPO 2122/2201 P6SM -SHRA VCTS BKN050CB BKN100 RMK FCST BASED ON AUTO OBS. NXT FCST BY 211900Z